sensor_id;sensor_type;location;lat;lon;timestamp;pressure;altitude;pressure_sealevel;temperature;humidity
17950;BME280;9100;48.700;9.316;2022-10-16T00:00:41;97561.2;;;17.08;100
17950;BME280;9100;48.700;9.316;2022-10-16T00:01:40;97564;;;17.06;100
17950;BME280;9100;48.700;9.316;2022-10-16T00:02:40;97556.5;;;17.05;100
17950;BME280;9100;48.700;9.316;2022-10-16T00:02:50;97562.40000000001;;;17.05;100
17950;BME280;9100;48.700;9.316;2022-10-16T00:03:41;97563.4;;;17.04;100
17950;BME280;9100;48.700;9.316;2022-10-16T00:04:40;97559.3;;;17.03;100
17950;BME280;9100;48.700;9.316;2022-10-16T00:05:42;97559.3;;;17.03;100
17950;BME280;9100;48.700;9.316;2022-10-16T00:06:40;97563.4;;;17.04;100
17950;BME280;9100;48.700;9.316;2022-10-16T00:07:40;97564.4;;;17.03;100
17950;BME280;9100;48.700;9.316;2022-10-16T00:07:50;97564.4;;;17.03;100
17950;BME280;9100;48.700;9.316;2022-10-16T00:08:40;97564.4;;;17.03;100
17950;BME280;9100;48.700;9.316;2022-10-16T00:09:40;97565.20000000001;;;17.04;100
17950;BME280;9100;48.700;9.316;2022-10-16T00:10:40;97560.79999999999;;;17.04;100
17950;BME280;9100;48.700;9.316;2022-10-16T00:11:40;97514.3;;;16.69;100
17950;BME280;9100;48.700;9.316;2022-10-16T00:12:40;97565.20000000001;;;17.04;100
17950;BME280;9100;48.700;9.316;2022-10-16T00:12:50;97566;;;17.04;100
17950;BME280;9100;48.700;9.316;2022-10-16T00:13:41;97562.40000000001;;;17.05;100
17950;BME280;9100;48.700;9.316;2022-10-16T00:14:40;97561.40000000001;;;17.06;100
17950;BME280;9100;48.700;9.316;2022-10-16T00:15:41;97552.9;;;17.06;100
17950;BME280;9100;48.700;9.316;2022-10-16T00:16:41;97558.8;;;17.06;100
17950;BME280;9100;48.700;9.316;2022-10-16T00:17:40;97557;;;17.07;100
17950;BME280;9100;48.700;9.316;2022-10-16T00:17:50;97563;;;17.07;100
17950;BME280;9100;48.700;9.316;2022-10-16T00:18:40;97563;;;17.07;100
17950;BME280;9100;48.700;9.316;2022-10-16T00:19:40;97569.5;;;17.1;100
17950;BME280;9100;48.700;9.316;2022-10-16T00:20:40;97567.7;;;17.1;100
17950;BME280;9100;48.700;9.316;2022-10-16T00:21:41;97571.1;;;17.11;100
17950;BME280;9100;48.700;9.316;2022-10-16T00:22:40;97571.1;;;17.11;100
17950;BME280;9100;48.700;9.316;2022-10-16T00:22:50;97570.3;;;17.1;100
17950;BME280;9100;48.700;9.316;2022-10-16T00:23:40;97568.2;;;17.12;100
17950;BME280;9100;48.700;9.316;2022-10-16T00:24:40;97573.40000000001;;;17.12;100
17950;BME280;9100;48.700;9.316;2022-10-16T00:25:41;97567.5;;;17.12;100
17950;BME280;9100;48.700;9.316;2022-10-16T00:26:41;97572.7;;;17.12;100
17950;BME280;9100;48.700;9.316;2022-10-16T00:27:40;97572.90000000001;;;17.1;100
17950;BME280;9100;48.700;9.316;2022-10-16T00:27:50;97576.2;;;17.11;100
17950;BME280;9100;48.700;9.316;2022-10-16T00:28:40;97574.5;;;17.11;100
17950;BME280;9100;48.700;9.316;2022-10-16T00:29:40;97578.8;;;17.11;100
17950;BME280;9100;48.700;9.316;2022-10-16T00:30:40;97575.5;;;17.1;100
17950;BME280;9100;48.700;9.316;2022-10-16T00:31:41;97577.3;;;17.1;100
17950;BME280;9100;48.700;9.316;2022-10-16T00:32:40;97577.5;;;17.08;100
17950;BME280;9100;48.700;9.316;2022-10-16T00:32:51;97574.90000000001;;;17.08;100
17950;BME280;9100;48.700;9.316;2022-10-16T00:33:40;97579;;;17.09;100
17950;BME280;9100;48.700;9.316;2022-10-16T00:34:40;97580.6;;;17.1;100
17950;BME280;9100;48.700;9.316;2022-10-16T00:35:41;97578.8;;;17.11;100
17950;BME280;9100;48.700;9.316;2022-10-16T00:36:40;97576.2;;;17.11;100
17950;BME280;9100;48.700;9.316;2022-10-16T00:37:41;97583.2;;;17.1;100
17950;BME280;9100;48.700;9.316;2022-10-16T00:37:50;97578.2;;;17.09;100
17950;BME280;9100;48.700;9.316;2022-10-16T00:38:40;97582.2;;;17.11;100
17950;BME280;9100;48.700;9.316;2022-10-16T00:39:40;97586.6;;;17.11;100
17950;BME280;9100;48.700;9.316;2022-10-16T00:40:40;97581.6;;;17.09;100
17950;BME280;9100;48.700;9.316;2022-10-16T00:41:40;97580.8;;;17.09;100
17950;BME280;9100;48.700;9.316;2022-10-16T00:42:40;97585.2;;;17.08;100
17950;BME280;9100;48.700;9.316;2022-10-16T00:42:51;97571.5;;;17.08;100
17950;BME280;9100;48.700;9.316;2022-10-16T00:43:41;97573.29999999999;;;17.07;100
17950;BME280;9100;48.700;9.316;2022-10-16T00:44:42;97584.7;;;17.06;100
17950;BME280;9100;48.700;9.316;2022-10-16T00:45:41;97572;;;17.05;100
17950;BME280;9100;48.700;9.316;2022-10-16T00:46:41;97574.8;;;17.03;100
17950;BME280;9100;48.700;9.316;2022-10-16T00:47:42;97568.2;;;17.01;100
17950;BME280;9100;48.700;9.316;2022-10-16T00:47:51;97571.6;;;17.01;100
17950;BME280;9100;48.700;9.316;2022-10-16T00:48:40;97573.2;;;17.02;100
17950;BME280;9100;48.700;9.316;2022-10-16T00:49:40;97573.2;;;17.02;100
17950;BME280;9100;48.700;9.316;2022-10-16T00:50:40;97576.8;;;17.01;100
17950;BME280;9100;48.700;9.316;2022-10-16T00:51:41;97572.40000000001;;;17.02;100
17950;BME280;9100;48.700;9.316;2022-10-16T00:52:41;97563.09999999999;;;17.01;100
17950;BME280;9100;48.700;9.316;2022-10-16T00:52:51;97571.6;;;17.01;100
17950;BME280;9100;48.700;9.316;2022-10-16T00:53:40;97568.8;;;17.03;100
17950;BME280;9100;48.700;9.316;2022-10-16T00:54:40;97572.2;;;17.03;100
17950;BME280;9100;48.700;9.316;2022-10-16T00:55:40;97573;;;17.04;100
17950;BME280;9100;48.700;9.316;2022-10-16T00:56:40;97565.4;;;17.02;100
17950;BME280;9100;48.700;9.316;2022-10-16T00:57:41;97566.4;;;17.01;100
17950;BME280;9100;48.700;9.316;2022-10-16T00:57:51;97574.2;;;17.01;100
17950;BME280;9100;48.700;9.316;2022-10-16T00:58:40;97571.6;;;17.01;100
17950;BME280;9100;48.700;9.316;2022-10-16T00:59:41;97568;;;17.02;100
17950;BME280;9100;48.700;9.316;2022-10-16T01:00:41;97565.7;;;17.01;100
17950;BME280;9100;48.700;9.316;2022-10-16T01:01:40;97564.09999999999;;;17;100
17950;BME280;9100;48.700;9.316;2022-10-16T01:02:41;97564.3;;;16.98;100
17950;BME280;9100;48.700;9.316;2022-10-16T01:02:51;97556.8;;;16.96;100
17950;BME280;9100;48.700;9.316;2022-10-16T01:03:41;97568.5;;;16.99;100
17950;BME280;9100;48.700;9.316;2022-10-16T01:04:42;97564.3;;;16.98;100
17950;BME280;9100;48.700;9.316;2022-10-16T01:05:42;97575.7;;;16.97;100
17950;BME280;9100;48.700;9.316;2022-10-16T01:06:42;97571.5;;;16.96;100
17950;BME280;9100;48.700;9.316;2022-10-16T01:07:41;97573.5;;;16.94;100
17950;BME280;9100;48.700;9.316;2022-10-16T01:07:53;97572.7;;;16.93;100
17950;BME280;9100;48.700;9.316;2022-10-16T01:08:44;97570.9;;;16.94;100
17950;BME280;9100;48.700;9.316;2022-10-16T01:09:44;97576.09999999999;;;16.94;100
17950;BME280;9100;48.700;9.316;2022-10-16T01:10:42;97580.4;;;16.93;100
17950;BME280;9100;48.700;9.316;2022-10-16T01:11:45;97583.3;;;16.92;100
17950;BME280;9100;48.700;9.316;2022-10-16T01:12:41;97583.5;;;16.9;100
17950;BME280;9100;48.700;9.316;2022-10-16T01:12:51;97581.7;;;16.91;100
17950;BME280;9100;48.700;9.316;2022-10-16T01:13:41;97582.5;;;16.91;100
17950;BME280;9100;48.700;9.316;2022-10-16T01:14:43;97580.1;;;16.9;100
17950;BME280;9100;48.700;9.316;2022-10-16T01:15:42;97573.90000000001;;;16.91;100
17950;BME280;9100;48.700;9.316;2022-10-16T01:16:43;97579.1;;;16.91;100
17950;BME280;9100;48.700;9.316;2022-10-16T01:17:41;97586.3;;;16.89;100
17950;BME280;9100;48.700;9.316;2022-10-16T01:17:51;97588.9;;;16.89;100
17950;BME280;9100;48.700;9.316;2022-10-16T01:18:42;97585.29999999999;;;16.9;100
17950;BME280;9100;48.700;9.316;2022-10-16T01:19:44;97583.7;;;16.89;100
17950;BME280;9100;48.700;9.316;2022-10-16T01:20:42;97587.09999999999;;;16.89;100
17950;BME280;9100;48.700;9.316;2022-10-16T01:21:42;97591.5;;;16.89;100
17950;BME280;9100;48.700;9.316;2022-10-16T01:22:44;97588.09999999999;;;16.88;100
17950;BME280;9100;48.700;9.316;2022-10-16T01:22:57;97594.8;;;16.89;100
17950;BME280;9100;48.700;9.316;2022-10-16T01:23:43;97585.29999999999;;;16.9;100
17950;BME280;9100;48.700;9.316;2022-10-16T01:24:41;97589.70000000001;;;16.89;100
17950;BME280;9100;48.700;9.316;2022-10-16T01:25:48;97594.8;;;16.89;100
17950;BME280;9100;48.700;9.316;2022-10-16T01:26:46;97589.9;;;16.88;100
17950;BME280;9100;48.700;9.316;2022-10-16T01:27:40;97593.5;;;16.87;100
17950;BME280;9100;48.700;9.316;2022-10-16T01:27:50;97590.9;;;16.87;100
17950;BME280;9100;48.700;9.316;2022-10-16T01:28:41;97596.8;;;16.87;100
17950;BME280;9100;48.700;9.316;2022-10-16T01:29:42;97605.6;;;16.86;100
17950;BME280;9100;48.700;9.316;2022-10-16T01:30:41;97603.8;;;16.87;100
17950;BME280;9100;48.700;9.316;2022-10-16T01:31:41;97598.6;;;16.87;100
17950;BME280;9100;48.700;9.316;2022-10-16T01:32:41;97595.5;;;16.85;100
17950;BME280;9100;48.700;9.316;2022-10-16T01:32:52;97597.1;;;16.86;100
17950;BME280;9100;48.700;9.316;2022-10-16T01:33:42;97593.7;;;16.85;100
17950;BME280;9100;48.700;9.316;2022-10-16T01:34:42;97588.7;;;16.84;100
17950;BME280;9100;48.700;9.316;2022-10-16T01:35:41;97590.8;;;16.82;100
17950;BME280;9100;48.700;9.316;2022-10-16T01:36:41;97580.9;;;16.79;100
17950;BME280;9100;48.700;9.316;2022-10-16T01:37:42;97584.7;;;16.76;100
17950;BME280;9100;48.700;9.316;2022-10-16T01:37:51;97580.3;;;16.77;100
17950;BME280;9100;48.700;9.316;2022-10-16T01:38:40;97584.5;;;16.78;100
17950;BME280;9100;48.700;9.316;2022-10-16T01:39:41;97582.3;;;16.75;100
17950;BME280;9100;48.700;9.316;2022-10-16T01:40:41;97582.3;;;16.75;100
17950;BME280;9100;48.700;9.316;2022-10-16T01:41:41;97586.90000000001;;;16.73;100
17950;BME280;9100;48.700;9.316;2022-10-16T01:42:41;97593.9;;;16.72;100
17950;BME280;9100;48.700;9.316;2022-10-16T01:42:52;97593.1;;;16.72;100
17950;BME280;9100;48.700;9.316;2022-10-16T01:43:42;97596.2;;;16.74;100
17950;BME280;9100;48.700;9.316;2022-10-16T01:44:41;97593.1;;;16.72;100
17950;BME280;9100;48.700;9.316;2022-10-16T01:45:41;97591.3;;;16.72;100
17950;BME280;9100;48.700;9.316;2022-10-16T01:46:41;97593.9;;;16.72;100
17950;BME280;9100;48.700;9.316;2022-10-16T01:47:40;97586.3;;;16.71;100
17950;BME280;9100;48.700;9.316;2022-10-16T01:47:51;97573.40000000001;;;16.71;100
17950;BME280;9100;48.700;9.316;2022-10-16T01:48:41;97571.6;;;16.71;100
17950;BME280;9100;48.700;9.316;2022-10-16T01:49:40;97565.7;;;16.71;100
17950;BME280;9100;48.700;9.316;2022-10-16T01:50:41;97568.5;;;16.69;100
17950;BME280;9100;48.700;9.316;2022-10-16T01:51:41;97571.90000000001;;;16.7;100
17950;BME280;9100;48.700;9.316;2022-10-16T01:52:41;97570.3;;;16.69;100
17950;BME280;9100;48.700;9.316;2022-10-16T01:52:51;97570.1;;;16.7;100
17950;BME280;9100;48.700;9.316;2022-10-16T01:53:40;97567.2;;;16.72;100
17950;BME280;9100;48.700;9.316;2022-10-16T01:54:41;97573.2;;;16.72;100
17950;BME280;9100;48.700;9.316;2022-10-16T01:55:41;97568;;;16.72;100
17950;BME280;9100;48.700;9.316;2022-10-16T01:56:40;97568.8;;;16.73;100
17950;BME280;9100;48.700;9.316;2022-10-16T01:57:41;97569.3;;;16.7;100
17950;BME280;9100;48.700;9.316;2022-10-16T01:57:51;97570.9;;;16.71;100
17950;BME280;9100;48.700;9.316;2022-10-16T01:58:46;97564.9;;;16.7;100
17950;BME280;9100;48.700;9.316;2022-10-16T01:59:42;97566.09999999999;;;16.68;100
17950;BME280;9100;48.700;9.316;2022-10-16T02:00:42;97568.7;;;16.68;100
17950;BME280;9100;48.700;9.316;2022-10-16T02:01:42;97569.7;;;16.67;100
17950;BME280;9100;48.700;9.316;2022-10-16T02:02:41;97572.29999999999;;;16.67;100
17950;BME280;9100;48.700;9.316;2022-10-16T02:02:51;97566.3;;;16.66;100
17950;BME280;9100;48.700;9.316;2022-10-16T02:03:40;97564.59999999999;;;16.67;100
17950;BME280;9100;48.700;9.316;2022-10-16T02:04:42;97570.5;;;16.67;100
17950;BME280;9100;48.700;9.316;2022-10-16T02:05:41;97559.40000000001;;;16.67;100
17950;BME280;9100;48.700;9.316;2022-10-16T02:06:41;97564.59999999999;;;16.67;100
17950;BME280;9100;48.700;9.316;2022-10-16T02:07:41;97563;;;16.66;100
17950;BME280;9100;48.700;9.316;2022-10-16T02:07:51;97553.59999999999;;;16.65;100
17950;BME280;9100;48.700;9.316;2022-10-16T02:08:40;97555.4;;;16.64;100
17950;BME280;9100;48.700;9.316;2022-10-16T02:09:41;97559;;;16.63;100
17950;BME280;9100;48.700;9.316;2022-10-16T02:10:41;97556.7;;;16.62;100
17950;BME280;9100;48.700;9.316;2022-10-16T02:11:41;97550.7;;;16.61;100
17950;BME280;9100;48.700;9.316;2022-10-16T02:12:41;97556.1;;;16.6;100
17950;BME280;9100;48.700;9.316;2022-10-16T02:12:53;97553.5;;;16.6;100
17950;BME280;9100;48.700;9.316;2022-10-16T02:13:41;97553.5;;;16.6;100
17950;BME280;9100;48.700;9.316;2022-10-16T02:14:41;97551.9;;;16.59;100
17950;BME280;9100;48.700;9.316;2022-10-16T02:15:41;97553.5;;;16.6;100
17950;BME280;9100;48.700;9.316;2022-10-16T02:16:42;97552.9;;;16.58;100
17950;BME280;9100;48.700;9.316;2022-10-16T02:17:41;97556.5;;;16.57;100
17950;BME280;9100;48.700;9.316;2022-10-16T02:17:51;97557.1;;;16.59;100
17950;BME280;9100;48.700;9.316;2022-10-16T02:18:40;97553.7;;;16.58;100
17950;BME280;9100;48.700;9.316;2022-10-16T02:19:40;97561.5;;;16.58;100
17950;BME280;9100;48.700;9.316;2022-10-16T02:20:43;97560.7;;;16.58;100
17950;BME280;9100;48.700;9.316;2022-10-16T02:21:43;97561.7;;;16.57;100
17950;BME280;9100;48.700;9.316;2022-10-16T02:22:42;97571.3;;;16.56;100
17950;BME280;9100;48.700;9.316;2022-10-16T02:22:51;97573;;;16.56;100
17950;BME280;9100;48.700;9.316;2022-10-16T02:23:42;97571;;;16.58;100
17950;BME280;9100;48.700;9.316;2022-10-16T02:24:42;97566.6;;;16.58;100
17950;BME280;9100;48.700;9.316;2022-10-16T02:25:41;97566.6;;;16.58;100
17950;BME280;9100;48.700;9.316;2022-10-16T02:26:42;97571.8;;;16.58;100
17950;BME280;9100;48.700;9.316;2022-10-16T02:27:41;97568.4;;;16.58;100
17950;BME280;9100;48.700;9.316;2022-10-16T02:27:52;97575.2;;;16.59;100
17950;BME280;9100;48.700;9.316;2022-10-16T02:28:42;97572.6;;;16.59;100
17950;BME280;9100;48.700;9.316;2022-10-16T02:29:41;97571;;;16.58;100
17950;BME280;9100;48.700;9.316;2022-10-16T02:30:42;97576.2;;;16.58;100
17950;BME280;9100;48.700;9.316;2022-10-16T02:31:41;97573.8;;;16.56;100
17950;BME280;9100;48.700;9.316;2022-10-16T02:32:41;97566.3;;;16.55;100
17950;BME280;9100;48.700;9.316;2022-10-16T02:32:51;97573;;;16.56;100
17950;BME280;9100;48.700;9.316;2022-10-16T02:33:40;97570.2;;;16.57;100
17950;BME280;9100;48.700;9.316;2022-10-16T02:34:40;97574.59999999999;;;16.57;100
17950;BME280;9100;48.700;9.316;2022-10-16T02:35:41;97573.8;;;16.56;100
17950;BME280;9100;48.700;9.316;2022-10-16T02:36:41;97571.40000000001;;;16.55;100
17950;BME280;9100;48.700;9.316;2022-10-16T02:37:41;97567.3;;;16.54;100
17950;BME280;9100;48.700;9.316;2022-10-16T02:37:51;97569.8;;;16.54;100
17950;BME280;9100;48.700;9.316;2022-10-16T02:38:40;97560.29999999999;;;16.54;100
17950;BME280;9100;48.700;9.316;2022-10-16T02:39:40;97556.9;;;16.54;100
17950;BME280;9100;48.700;9.316;2022-10-16T02:40:41;97563.9;;;16.53;100
17950;BME280;9100;48.700;9.316;2022-10-16T02:41:41;97554;;;16.5;100
17950;BME280;9100;48.700;9.316;2022-10-16T02:42:41;97547.29999999999;;;16.49;100
17950;BME280;9100;48.700;9.316;2022-10-16T02:42:51;97557.6;;;16.49;100
17950;BME280;9100;48.700;9.316;2022-10-16T02:43:41;97550.9;;;16.48;100
17950;BME280;9100;48.700;9.316;2022-10-16T02:44:41;97543.3;;;16.46;100
17950;BME280;9100;48.700;9.316;2022-10-16T02:45:41;97541.7;;;16.45;100
17950;BME280;9100;48.700;9.316;2022-10-16T02:46:41;97545.4;;;16.44;100
17950;BME280;9100;48.700;9.316;2022-10-16T02:47:41;97535.40000000001;;;16.41;100
17950;BME280;9100;48.700;9.316;2022-10-16T02:47:51;97545;;;16.41;100
17950;BME280;9100;48.700;9.316;2022-10-16T02:48:40;97543.4;;;16.4;100
17950;BME280;9100;48.700;9.316;2022-10-16T02:49:40;97544.7;;;16.37;100
17950;BME280;9100;48.700;9.316;2022-10-16T02:50:40;97538.3;;;16.33;100
17950;BME280;9100;48.700;9.316;2022-10-16T02:51:40;97540.9;;;16.33;100
17950;BME280;9100;48.700;9.316;2022-10-16T02:52:40;97545.7;;;16.3;100
17950;BME280;9100;48.700;9.316;2022-10-16T02:52:51;97537.2;;;16.29;100
17950;BME280;9100;48.700;9.316;2022-10-16T02:53:40;97537.2;;;16.29;100
17950;BME280;9100;48.700;9.316;2022-10-16T02:54:40;97545.9;;;16.28;100
17950;BME280;9100;48.700;9.316;2022-10-16T02:55:41;97546.90000000001;;;16.27;100
17950;BME280;9100;48.700;9.316;2022-10-16T02:56:41;97541.2;;;16.25;100
17950;BME280;9100;48.700;9.316;2022-10-16T02:57:41;97551.5;;;16.25;100
17950;BME280;9100;48.700;9.316;2022-10-16T02:57:51;97546.40000000001;;;16.25;100
17950;BME280;9100;48.700;9.316;2022-10-16T02:58:40;97548;;;16.26;100
17950;BME280;9100;48.700;9.316;2022-10-16T02:59:41;97549.5;;;16.27;100
17950;BME280;9100;48.700;9.316;2022-10-16T03:00:41;97552.3;;;16.26;100
17950;BME280;9100;48.700;9.316;2022-10-16T03:01:41;97553.09999999999;;;16.26;100
17950;BME280;9100;48.700;9.316;2022-10-16T03:02:40;97558.5;;;16.25;100
17950;BME280;9100;48.700;9.316;2022-10-16T03:02:51;97563.4;;;16.26;100
17950;BME280;9100;48.700;9.316;2022-10-16T03:03:40;97553.9;;;16.27;100
17950;BME280;9100;48.700;9.316;2022-10-16T03:04:40;97561.40000000001;;;16.28;100
17950;BME280;9100;48.700;9.316;2022-10-16T03:05:42;97555.5;;;16.28;100
17950;BME280;9100;48.700;9.316;2022-10-16T03:06:41;97560.40000000001;;;16.29;100
17950;BME280;9100;48.700;9.316;2022-10-16T03:07:41;97504.7;;;15.92;100
17950;BME280;9100;48.700;9.316;2022-10-16T03:07:51;97554.7;;;16.27;100
17950;BME280;9100;48.700;9.316;2022-10-16T03:08:41;97550.5;;;16.26;100
17950;BME280;9100;48.700;9.316;2022-10-16T03:09:41;97553.09999999999;;;16.26;100
17950;BME280;9100;48.700;9.316;2022-10-16T03:10:40;97556.7;;;16.25;100
17950;BME280;9100;48.700;9.316;2022-10-16T03:11:41;97552.3;;;16.26;100
17950;BME280;9100;48.700;9.316;2022-10-16T03:12:41;97553.3;;;16.25;100
17950;BME280;9100;48.700;9.316;2022-10-16T03:12:51;97555.1;;;16.24;100
17950;BME280;9100;48.700;9.316;2022-10-16T03:13:41;97550;;;16.24;100
17950;BME280;9100;48.700;9.316;2022-10-16T03:14:41;97547.6;;;16.23;100
17950;BME280;9100;48.700;9.316;2022-10-16T03:15:41;97552.70000000001;;;16.23;100
17950;BME280;9100;48.700;9.316;2022-10-16T03:16:41;97553.5;;;16.23;100
17950;BME280;9100;48.700;9.316;2022-10-16T03:17:41;97548.40000000001;;;16.23;100
17950;BME280;9100;48.700;9.316;2022-10-16T03:17:51;97546.8;;;16.22;100
17950;BME280;9100;48.700;9.316;2022-10-16T03:18:40;97546.40000000001;;;16.25;100
17950;BME280;9100;48.700;9.316;2022-10-16T03:19:41;97546.40000000001;;;16.25;100
17950;BME280;9100;48.700;9.316;2022-10-16T03:20:42;97554.1;;;16.25;100
17950;BME280;9100;48.700;9.316;2022-10-16T03:21:40;97551;;;16.23;100
17950;BME280;9100;48.700;9.316;2022-10-16T03:22:40;97549.2;;;16.24;100
17950;BME280;9100;48.700;9.316;2022-10-16T03:22:51;97552.3;;;16.26;100
17950;BME280;9100;48.700;9.316;2022-10-16T03:23:40;97548;;;16.26;100
17950;BME280;9100;48.700;9.316;2022-10-16T03:24:41;97549.5;;;16.27;100
17950;BME280;9100;48.700;9.316;2022-10-16T03:25:41;97548.5;;;16.28;100
17950;BME280;9100;48.700;9.316;2022-10-16T03:26:40;97551.09999999999;;;16.28;100
17950;BME280;9100;48.700;9.316;2022-10-16T03:27:41;97546.7;;;16.29;100
17950;BME280;9100;48.700;9.316;2022-10-16T03:27:51;97545.9;;;16.28;100
17950;BME280;9100;48.700;9.316;2022-10-16T03:28:41;97544.7;;;16.31;100
17950;BME280;9100;48.700;9.316;2022-10-16T03:29:40;97547.1;;;16.32;100
17950;BME280;9100;48.700;9.316;2022-10-16T03:30:41;97551.70000000001;;;16.3;100
17950;BME280;9100;48.700;9.316;2022-10-16T03:31:41;97546.5;;;16.3;100
17950;BME280;9100;48.700;9.316;2022-10-16T03:32:41;97547.5;;;16.29;100
17950;BME280;9100;48.700;9.316;2022-10-16T03:32:51;97544.2;;;16.29;100
17950;BME280;9100;48.700;9.316;2022-10-16T03:33:41;97562;;;16.3;100
17950;BME280;9100;48.700;9.316;2022-10-16T03:34:41;97552.70000000001;;;16.29;100
17950;BME280;9100;48.700;9.316;2022-10-16T03:35:41;97505.9;;;15.96;100
17950;BME280;9100;48.700;9.316;2022-10-16T03:36:41;97562.8;;;16.31;100
17950;BME280;9100;48.700;9.316;2022-10-16T03:37:41;97550.09999999999;;;16.29;100
17950;BME280;9100;48.700;9.316;2022-10-16T03:37:51;97552.70000000001;;;16.29;100
17950;BME280;9100;48.700;9.316;2022-10-16T03:38:41;97551.70000000001;;;16.3;100
17950;BME280;9100;48.700;9.316;2022-10-16T03:39:41;97554.2;;;16.3;100
17950;BME280;9100;48.700;9.316;2022-10-16T03:40:41;97553.5;;;16.3;100
17950;BME280;9100;48.700;9.316;2022-10-16T03:41:41;97545;;;16.29;100
17950;BME280;9100;48.700;9.316;2022-10-16T03:42:41;97551.9;;;16.29;100
17950;BME280;9100;48.700;9.316;2022-10-16T03:42:51;97554.5;;;16.29;100
17950;BME280;9100;48.700;9.316;2022-10-16T03:43:41;97559.40000000001;;;16.3;100
17950;BME280;9100;48.700;9.316;2022-10-16T03:44:41;97559.40000000001;;;16.3;100
17950;BME280;9100;48.700;9.316;2022-10-16T03:45:41;97564.59999999999;;;16.3;100
17950;BME280;9100;48.700;9.316;2022-10-16T03:46:41;97557.6;;;16.31;100
17950;BME280;9100;48.700;9.316;2022-10-16T03:47:41;97558.6;;;16.3;100
17950;BME280;9100;48.700;9.316;2022-10-16T03:47:51;97563.8;;;16.3;100
17950;BME280;9100;48.700;9.316;2022-10-16T03:48:41;97566.09999999999;;;16.31;100
17950;BME280;9100;48.700;9.316;2022-10-16T03:49:41;97561;;;16.31;100
17950;BME280;9100;48.700;9.316;2022-10-16T03:50:41;97568.2;;;16.29;100
17950;BME280;9100;48.700;9.316;2022-10-16T03:51:41;97557.8;;;16.29;100
17950;BME280;9100;48.700;9.316;2022-10-16T03:52:41;97565.8;;;16.28;100
17950;BME280;9100;48.700;9.316;2022-10-16T03:52:51;97560.6;;;16.28;100
17950;BME280;9100;48.700;9.316;2022-10-16T03:53:41;97564;;;16.28;100
17950;BME280;9100;48.700;9.316;2022-10-16T03:54:41;97563.2;;;16.28;100
17950;BME280;9100;48.700;9.316;2022-10-16T03:55:41;97561.40000000001;;;16.28;100
17950;BME280;9100;48.700;9.316;2022-10-16T03:56:41;97568.6;;;16.26;100
17950;BME280;9100;48.700;9.316;2022-10-16T03:57:41;97562.7;;;16.26;100
17950;BME280;9100;48.700;9.316;2022-10-16T03:57:51;97573;;;16.26;100
17950;BME280;9100;48.700;9.316;2022-10-16T03:58:41;97564.20000000001;;;16.27;100
17950;BME280;9100;48.700;9.316;2022-10-16T03:59:41;97565;;;16.27;100
17950;BME280;9100;48.700;9.316;2022-10-16T04:00:41;97562.40000000001;;;16.27;100
17950;BME280;9100;48.700;9.316;2022-10-16T04:01:41;97570.2;;;16.27;100
17950;BME280;9100;48.700;9.316;2022-10-16T04:02:41;97574.5;;;16.27;100
17950;BME280;9100;48.700;9.316;2022-10-16T04:02:51;97569.4;;;16.27;100
17950;BME280;9100;48.700;9.316;2022-10-16T04:03:41;97572.7;;;16.27;100
17950;BME280;9100;48.700;9.316;2022-10-16T04:04:41;97574.3;;;16.28;100
17950;BME280;9100;48.700;9.316;2022-10-16T04:05:41;97576.9;;;16.28;100
17950;BME280;9100;48.700;9.316;2022-10-16T04:06:41;97580.5;;;16.27;100
17950;BME280;9100;48.700;9.316;2022-10-16T04:07:41;97576.3;;;16.26;100
17950;BME280;9100;48.700;9.316;2022-10-16T04:07:51;97572.2;;;16.25;100
17950;BME280;9100;48.700;9.316;2022-10-16T04:08:42;97575.3;;;16.27;100
17950;BME280;9100;48.700;9.316;2022-10-16T04:09:41;97577.9;;;16.27;100
17950;BME280;9100;48.700;9.316;2022-10-16T04:10:41;97567.8;;;16.26;100
17950;BME280;9100;48.700;9.316;2022-10-16T04:11:41;97571.40000000001;;;16.25;100
17950;BME280;9100;48.700;9.316;2022-10-16T04:12:41;97574;;;16.25;100
17950;BME280;9100;48.700;9.316;2022-10-16T04:12:51;97570.6;;;16.24;100
17950;BME280;9100;48.700;9.316;2022-10-16T04:13:41;97578.3;;;16.24;100
17950;BME280;9100;48.700;9.316;2022-10-16T04:14:41;97573.8;;;16.26;100
17950;BME280;9100;48.700;9.316;2022-10-16T04:15:41;97572.2;;;16.25;100
17950;BME280;9100;48.700;9.316;2022-10-16T04:16:41;97566.2;;;16.25;100
17950;BME280;9100;48.700;9.316;2022-10-16T04:17:41;97567.5;;;16.22;100
17950;BME280;9100;48.700;9.316;2022-10-16T04:17:51;97566.4;;;16.23;100
17950;BME280;9100;48.700;9.316;2022-10-16T04:18:41;97577;;;16.22;100
17950;BME280;9100;48.700;9.316;2022-10-16T04:19:41;97564.3;;;16.2;100
17950;BME280;9100;48.700;9.316;2022-10-16T04:20:41;97567.9;;;16.19;100
17950;BME280;9100;48.700;9.316;2022-10-16T04:21:41;97569.1;;;16.17;100
17950;BME280;9100;48.700;9.316;2022-10-16T04:22:41;97570.3;;;16.14;100
17950;BME280;9100;48.700;9.316;2022-10-16T04:22:51;97574.7;;;16.14;100
17950;BME280;9100;48.700;9.316;2022-10-16T04:23:41;97572.7;;;16.16;100
17950;BME280;9100;48.700;9.316;2022-10-16T04:24:41;97571.1;;;16.15;100
17950;BME280;9100;48.700;9.316;2022-10-16T04:25:41;97573.5;;;16.16;100
17950;BME280;9100;48.700;9.316;2022-10-16T04:26:41;97573.5;;;16.16;100
17950;BME280;9100;48.700;9.316;2022-10-16T04:27:41;97573.29999999999;;;16.18;100
17950;BME280;9100;48.700;9.316;2022-10-16T04:27:52;97565.5;;;16.18;100
17950;BME280;9100;48.700;9.316;2022-10-16T04:28:41;97524.2;;;15.88;100
17950;BME280;9100;48.700;9.316;2022-10-16T04:29:41;97576.4;;;16.2;100
17950;BME280;9100;48.700;9.316;2022-10-16T04:30:41;97575.59999999999;;;16.19;100
17950;BME280;9100;48.700;9.316;2022-10-16T04:31:41;97578.2;;;16.19;100
17950;BME280;9100;48.700;9.316;2022-10-16T04:32:41;97577.4;;;16.19;100
17950;BME280;9100;48.700;9.316;2022-10-16T04:32:51;97576.59999999999;;;16.18;100
17950;BME280;9100;48.700;9.316;2022-10-16T04:33:41;97527.8;;;15.87;100